createdAt,value
2023-05-19T00:00:48.566Z,102610.09
2023-05-19T00:03:17.918Z,102616.41
2023-05-19T00:05:46.307Z,102612.94
2023-05-19T00:08:15.155Z,102611.25
2023-05-19T00:10:41.901Z,102611.97
2023-05-19T00:13:08.840Z,102612.94
2023-05-19T00:15:35.624Z,102618.41
2023-05-19T00:18:02.684Z,102611.09
2023-05-19T00:20:29.240Z,102612.94
2023-05-19T00:22:55.849Z,102611.25
2023-05-19T00:25:22.587Z,102605.78
2023-05-19T00:27:49.058Z,102607.66
2023-05-19T00:30:15.781Z,102615.69
2023-05-19T00:32:42.267Z,102599.47
2023-05-19T00:35:08.857Z,102606.50
2023-05-19T00:37:35.495Z,102605.63
2023-05-19T00:40:01.956Z,102603.91
2023-05-19T00:42:28.503Z,102599.28
2023-05-19T00:44:55.298Z,102607.34
2023-05-19T00:47:21.948Z,102605.63
2023-05-19T00:49:48.404Z,102604.75
2023-05-19T00:52:15.154Z,102598.44
2023-05-19T00:54:41.835Z,102602.03
2023-05-19T00:57:08.306Z,102606.63
2023-05-19T00:59:34.715Z,102617.56
2023-05-19T01:02:02.872Z,102611.25
2023-05-19T01:04:29.770Z,102622.34
2023-05-19T01:06:56.397Z,102617.75
2023-05-19T01:09:23.318Z,102616.72
2023-05-19T01:11:50.278Z,102621.31
2023-05-19T01:14:17.272Z,102616.72
2023-05-19T01:16:47.312Z,102613.97
2023-05-19T01:19:28.705Z,102600.47
2023-05-19T01:22:04.036Z,102605.78
2023-05-19T01:24:30.583Z,102610.38
2023-05-19T01:26:57.200Z,102602.34
2023-05-19T01:29:23.664Z,102603.22
2023-05-19T01:31:50.991Z,102604.06
2023-05-19T01:34:17.959Z,102607.66
2023-05-19T01:36:45.182Z,102613.97
2023-05-19T01:39:12.186Z,102616.88
2023-05-19T01:41:41.562Z,102619.63
2023-05-19T01:44:08.095Z,102620.63
2023-05-19T01:46:34.772Z,102620.63
2023-05-19T01:49:01.882Z,102620.63
2023-05-19T01:51:28.310Z,102618.75
2023-05-19T01:53:55.889Z,102624.34
2023-05-19T01:56:27.712Z,102615.31
2023-05-19T01:58:59.096Z,102618.91
2023-05-19T02:01:53.346Z,102615.31
2023-05-19T02:04:20.272Z,102611.72
2023-05-19T02:07:05.603Z,102625.22
2023-05-19T02:09:40.553Z,102612.56
2023-05-19T02:12:13.094Z,102610.84
2023-05-19T02:14:41.987Z,102606.41
2023-05-19T02:17:08.828Z,102614.44
2023-05-19T02:19:39.156Z,102604.38
2023-05-19T02:22:05.930Z,102606.09
2023-05-19T02:24:32.610Z,102607.97
2023-05-19T02:26:59.617Z,102600.78
2023-05-19T02:29:26.425Z,102612.56
2023-05-19T02:31:52.927Z,102608.13
2023-05-19T02:34:19.457Z,102606.25
2023-05-19T02:36:45.874Z,102603.50
2023-05-19T02:39:12.603Z,102606.25
2023-05-19T02:41:39.380Z,102610.84
2023-05-19T02:44:05.912Z,102604.38
2023-05-19T02:46:32.620Z,102601.81
2023-05-19T02:48:59.635Z,102600.09
2023-05-19T02:51:26.096Z,102599.94
2023-05-19T02:53:52.540Z,102597.19
2023-05-19T02:56:19.303Z,102595.47
2023-05-19T02:58:45.803Z,102592.41
2023-05-19T03:01:12.269Z,102587.84
2023-05-19T03:03:38.759Z,102589.69
2023-05-19T03:06:08.740Z,102589.69
2023-05-19T03:08:35.880Z,102586.94
2023-05-19T03:11:02.819Z,102591.56
2023-05-19T03:13:29.428Z,102595.31
2023-05-19T03:15:59.253Z,102591.56
2023-05-19T03:18:28.523Z,102594.28
2023-05-19T03:20:55.066Z,102586.09
2023-05-19T03:23:21.726Z,102589.69
2023-05-19T03:25:48.308Z,102596.16
2023-05-19T03:28:14.752Z,102594.75
2023-05-19T03:30:41.343Z,102605.41
2023-05-19T03:33:08.089Z,102608.97
2023-05-19T03:35:34.786Z,102596.16
2023-05-19T03:38:01.559Z,102599.94
2023-05-19T03:40:28.208Z,102613.59
2023-05-19T03:42:54.671Z,102609.16
2023-05-19T03:45:21.181Z,102603.50
2023-05-19T03:47:47.811Z,102602.50
2023-05-19T03:50:14.294Z,102605.22
2023-05-19T03:52:45.496Z,102605.22
2023-05-19T03:55:12.242Z,102611.53
2023-05-19T03:57:38.669Z,102611.53
2023-05-19T04:00:06.525Z,102608.81
2023-05-19T04:02:33.116Z,102608.81
2023-05-19T04:04:59.672Z,102613.44
2023-05-19T04:07:26.263Z,102610.69
2023-05-19T04:09:52.682Z,102606.09
2023-05-19T04:12:19.101Z,102610.69
2023-05-19T04:14:45.853Z,102612.75
2023-05-19T04:17:12.505Z,102618.19
2023-05-19T04:19:38.908Z,102607.09
2023-05-19T04:22:05.359Z,102610.69
2023-05-19T04:24:31.820Z,102612.56
2023-05-19T04:27:02.446Z,102616.16
2023-05-19T04:29:29.550Z,102616.16
2023-05-19T04:31:57.220Z,102606.09
2023-05-19T04:34:23.620Z,102614.44
2023-05-19T04:36:52.393Z,102612.75
2023-05-19T04:39:19.986Z,102616.50
2023-05-19T04:41:46.411Z,102616.50
2023-05-19T04:44:13.554Z,102620.09
2023-05-19T04:46:40.106Z,102608.28
2023-05-19T04:49:06.693Z,102623.81
2023-05-19T04:51:33.325Z,102612.88
2023-05-19T04:54:00.195Z,102611.03
2023-05-19T04:56:27.388Z,102616.31
2023-05-19T04:58:54.043Z,102615.16
2023-05-19T05:01:22.562Z,102610.56
2023-05-19T05:03:49.318Z,102612.09
2023-05-19T05:06:16.433Z,102617.44
2023-05-19T05:08:42.929Z,102611.97
2023-05-19T05:11:09.555Z,102610.78
2023-05-19T05:13:36.204Z,102608.91
2023-05-19T05:16:06.715Z,102611.63
2023-05-19T05:18:33.787Z,102614.38
2023-05-19T05:21:00.422Z,102616.09
2023-05-19T05:23:27.199Z,102615.25
2023-05-19T05:25:53.947Z,102612.34
2023-05-19T05:28:20.554Z,102615.94
2023-05-19T05:30:47.456Z,102608.59
2023-05-19T05:33:14.122Z,102609.44
2023-05-19T05:35:40.742Z,102608.47
2023-05-19T05:38:07.345Z,102611.19
2023-05-19T05:40:33.814Z,102615.63
2023-05-19T05:43:00.528Z,102607.75
2023-05-19T05:45:26.937Z,102610.47
2023-05-19T05:47:53.588Z,102607.06
2023-05-19T05:50:20.230Z,102605.16
2023-05-19T05:52:47.704Z,102606.03
2023-05-19T05:55:14.525Z,102608.59
2023-05-19T05:57:44.014Z,102606.72
2023-05-19T06:00:15.435Z,102612.91
2023-05-19T06:02:46.530Z,102606.41
2023-05-19T06:05:14.033Z,102617.50
2023-05-19T06:07:40.854Z,102614.22
2023-05-19T06:10:07.737Z,102616.41
2023-05-19T06:12:34.742Z,102619.31
2023-05-19T06:15:02.376Z,102615.84
2023-05-19T06:17:29.006Z,102609.53
2023-05-19T06:19:55.479Z,102615.38
2023-05-19T06:22:21.958Z,102607.91
2023-05-19T06:24:48.512Z,102612.19
2023-05-19T06:27:14.959Z,102621.22
2023-05-19T06:29:41.387Z,102613.19
2023-05-19T06:32:08.072Z,102617.81
2023-05-19T06:34:34.511Z,102614.78
2023-05-19T06:37:02.650Z,102619.06
2023-05-19T06:39:29.561Z,102628.97
2023-05-19T06:41:55.999Z,102623.66
2023-05-19T06:44:22.704Z,102613.75
2023-05-19T06:46:49.282Z,102615.16
2023-05-19T06:49:15.820Z,102615.88
2023-05-19T06:51:42.369Z,102622.06
2023-05-19T06:54:11.090Z,102616.44
2023-05-19T06:56:37.530Z,102620.88
2023-05-19T06:59:04.187Z,102616.13
2023-05-19T07:01:30.944Z,102614.25
2023-05-19T07:03:57.552Z,102616.81
2023-05-19T07:06:24.017Z,102614.06
2023-05-19T07:08:50.514Z,102609.50
2023-05-19T07:11:17.464Z,102613.09
2023-05-19T07:13:43.830Z,102608.47
2023-05-19T07:16:10.443Z,102608.28
2023-05-19T07:18:36.956Z,102602.69
2023-05-19T07:21:03.501Z,102603.69
2023-05-19T07:23:29.979Z,102608.84
2023-05-19T07:25:56.673Z,102609.69
2023-05-19T07:28:23.328Z,102611.41
2023-05-19T07:30:49.984Z,102604.09
2023-05-19T07:33:16.489Z,102613.84
2023-05-19T07:35:43.008Z,102611.09
2023-05-19T07:38:09.443Z,102611.97
2023-05-19T07:40:36.057Z,102604.47
2023-05-19T07:43:02.529Z,102607.22
2023-05-19T07:45:28.927Z,102611.66
2023-05-19T07:47:55.382Z,102610.78
2023-05-19T07:50:22.271Z,102608.75
2023-05-19T07:52:48.770Z,102611.47
2023-05-19T07:55:15.226Z,102605.16
2023-05-19T07:57:41.643Z,102603.28
2023-05-19T08:00:10.045Z,102600.53
2023-05-19T08:02:36.524Z,102598.66
2023-05-19T08:05:02.978Z,102593.91
2023-05-19T08:07:29.383Z,102592.03
2023-05-19T08:09:55.881Z,102593.06
2023-05-19T08:12:22.325Z,102584.69
2023-05-19T08:14:48.698Z,102585.69
2023-05-19T08:17:15.141Z,102589.13
2023-05-19T08:19:41.552Z,102590.00
2023-05-19T08:22:07.973Z,102587.28
2023-05-19T08:24:34.561Z,102589.84
2023-05-19T08:27:01.062Z,102587.78
2023-05-19T08:29:27.604Z,102588.66
2023-05-19T08:31:54.135Z,102576.69
2023-05-19T08:34:20.818Z,102591.91
2023-05-19T08:36:47.702Z,102587.34
2023-05-19T08:39:16.186Z,102590.91
2023-05-19T08:41:42.720Z,102590.75
2023-05-19T08:44:09.263Z,102599.81
2023-05-19T08:46:36.130Z,102588.69
2023-05-19T08:49:05.498Z,102586.13
2023-05-19T08:51:41.530Z,102593.31
2023-05-19T08:54:16.013Z,102596.03
2023-05-19T08:56:43.316Z,102586.84
2023-05-19T08:59:10.191Z,102585.97
2023-05-19T09:04:04.298Z,102578.63
2023-05-19T09:06:32.369Z,102583.22
2023-05-19T09:08:58.813Z,102581.38
2023-05-19T09:11:25.236Z,102567.69
2023-05-19T09:13:51.927Z,102573.16
2023-05-19T09:16:18.555Z,102568.53
2023-05-19T09:18:56.054Z,102566.66
2023-05-19T09:21:32.642Z,102570.44
2023-05-19T09:24:02.633Z,102564.97
2023-05-19T09:26:42.542Z,102563.06
2023-05-19T09:29:12.611Z,102551.41
2023-05-19T09:31:39.332Z,102540.47
2023-05-19T09:34:11.781Z,102542.53
2023-05-19T09:36:39.498Z,102548.84
2023-05-19T09:39:12.948Z,102546.97
2023-05-19T09:41:39.470Z,102544.56
2023-05-19T09:44:07.343Z,102539.25
2023-05-19T09:46:36.043Z,102535.81
2023-05-19T09:49:09.731Z,102541.28
2023-05-19T09:51:37.816Z,102538.03
2023-05-19T09:54:07.069Z,102535.59
2023-05-19T09:56:36.676Z,102531.84
2023-05-19T09:59:03.941Z,102525.69
2023-05-19T10:01:37.343Z,102515.44
2023-05-19T10:04:05.903Z,102514.75
2023-05-19T10:06:32.783Z,102513.88
2023-05-19T10:09:00.291Z,102513.88
2023-05-19T10:12:20.106Z,102512.88
2023-05-19T10:14:47.723Z,102508.09
2023-05-19T10:17:14.408Z,102507.94
2023-05-19T10:19:41.346Z,102504.84
2023-05-19T10:22:07.760Z,102510.31
2023-05-19T10:24:34.314Z,102506.06
2023-05-19T10:27:03.646Z,102508.78
2023-05-19T10:29:35.332Z,102516.16
2023-05-19T10:32:04.898Z,102500.91
2023-05-19T10:34:53.470Z,102509.97
2023-05-19T10:37:29.418Z,102507.41
2023-05-19T10:39:56.529Z,102505.66
2023-05-19T10:42:36.743Z,102503.28
2023-05-19T10:45:03.320Z,102503.41
2023-05-19T10:47:30.216Z,102504.63
2023-05-19T10:49:56.764Z,102508.38
2023-05-19T10:52:25.999Z,102507.50
2023-05-19T10:54:54.823Z,102500.31
2023-05-19T10:57:28.376Z,102509.91
2023-05-19T10:59:55.699Z,102507.00
2023-05-19T11:02:38.968Z,102499.81
2023-05-19T11:05:14.306Z,102499.81
2023-05-19T11:07:44.884Z,102490.59
2023-05-19T11:10:11.699Z,102488.75
2023-05-19T11:12:42.964Z,102483.97
2023-05-19T11:15:14.043Z,102475.75
2023-05-19T11:17:43.829Z,102491.13
2023-05-19T11:20:21.823Z,102479.34
2023-05-19T11:23:01.736Z,102477.31
2023-05-19T11:25:43.575Z,102483.63
2023-05-19T11:28:13.708Z,102471.66
2023-05-19T11:30:41.622Z,102480.91
2023-05-19T11:33:08.664Z,102477.31
2023-05-19T11:35:36.281Z,102480.72
2023-05-19T11:38:03.428Z,102468.94
2023-05-19T11:40:30.705Z,102476.97
2023-05-19T11:42:57.195Z,102481.59
2023-05-19T11:45:26.692Z,102478.00
2023-05-19T11:48:01.862Z,102470.81
2023-05-19T11:50:31.209Z,102473.38
2023-05-19T11:52:59.666Z,102479.69
2023-05-19T11:55:26.386Z,102472.53
2023-05-19T11:58:03.818Z,102481.59
2023-05-19T12:00:37.257Z,102476.28
2023-05-19T12:03:04.283Z,102476.47
2023-05-19T12:05:33.944Z,102480.38
2023-05-19T12:08:02.608Z,102470.28
2023-05-19T12:10:33.876Z,102457.47
2023-05-19T12:13:00.858Z,102471.31
2023-05-19T12:15:27.306Z,102472.16
2023-05-19T12:17:57.649Z,102475.91
2023-05-19T12:20:26.987Z,102465.97
2023-05-19T12:22:55.379Z,102460.50
2023-05-19T12:25:22.462Z,102452.31
2023-05-19T12:27:49.656Z,102466.88
2023-05-19T12:30:16.803Z,102471.44
2023-05-19T12:32:44.047Z,102459.81
2023-05-19T12:35:10.682Z,102468.72
2023-05-19T12:37:37.339Z,102477.81
2023-05-19T12:40:04.137Z,102462.38
2023-05-19T12:42:31.268Z,102456.06
2023-05-19T12:45:00.589Z,102450.59
2023-05-19T12:47:34.864Z,102447.00
2023-05-19T12:50:05.917Z,102437.78
2023-05-19T12:52:35.520Z,102457.78
2023-05-19T12:55:05.655Z,102452.31
2023-05-19T12:57:36.360Z,102443.25
2023-05-19T13:00:03.007Z,102437.78
2023-05-19T13:02:29.634Z,102450.44
2023-05-19T13:04:56.199Z,102453.00
2023-05-19T13:07:22.678Z,102455.56
2023-05-19T13:09:49.856Z,102442.75
2023-05-19T13:12:16.412Z,102445.34
2023-05-19T13:14:43.627Z,102449.97
2023-05-19T13:17:10.190Z,102439.03
2023-05-19T13:19:36.716Z,102448.94
2023-05-19T13:22:03.634Z,102452.53
2023-05-19T13:24:30.539Z,102452.69
2023-05-19T13:26:57.010Z,102439.88
2023-05-19T13:29:23.431Z,102441.59
2023-05-19T13:31:50.084Z,102443.28
2023-05-19T13:34:17.081Z,102450.63
2023-05-19T13:36:48.208Z,102449.63
2023-05-19T13:39:14.758Z,102432.53
2023-05-19T13:41:41.166Z,102428.09
2023-05-19T13:44:07.582Z,102415.09
2023-05-19T13:46:44.671Z,102427.72
2023-05-19T13:49:12.379Z,102435.25
2023-05-19T13:51:39.527Z,102431.66
2023-05-19T13:54:05.933Z,102428.94
2023-05-19T13:56:32.439Z,102447.22
2023-05-19T13:58:59.115Z,102439.03
2023-05-19T14:01:25.698Z,102435.94
2023-05-19T14:03:52.591Z,102434.09
2023-05-19T14:06:19.673Z,102433.06
2023-05-19T14:08:46.136Z,102442.28
2023-05-19T14:11:22.584Z,102437.69
2023-05-19T14:13:52.547Z,102436.81
2023-05-19T14:16:20.444Z,102442.28
2023-05-19T14:18:46.957Z,102441.41
2023-05-19T14:21:13.411Z,102442.28
2023-05-19T14:23:39.822Z,102452.22
2023-05-19T14:26:06.408Z,102448.44
2023-05-19T14:28:32.844Z,102444.00
2023-05-19T14:30:59.352Z,102437.50
2023-05-19T14:33:26.109Z,102430.31
2023-05-19T14:35:52.826Z,102440.41
2023-05-19T14:38:19.272Z,102446.75
2023-05-19T14:40:45.787Z,102449.47
2023-05-19T14:43:12.334Z,102453.06
2023-05-19T14:45:38.932Z,102448.44
2023-05-19T14:48:05.559Z,102452.88
2023-05-19T14:50:32.355Z,102440.25
2023-05-19T14:52:58.920Z,102460.41
2023-05-19T14:55:25.449Z,102455.09
2023-05-19T14:57:51.882Z,102444.13
2023-05-19T15:00:18.487Z,102446.03
2023-05-19T15:02:44.967Z,102454.22
2023-05-19T15:05:11.789Z,102447.75
2023-05-19T15:07:38.244Z,102443.16
2023-05-19T15:10:04.931Z,102458.53
2023-05-19T15:12:31.369Z,102453.75
2023-05-19T15:14:57.992Z,102442.78
2023-05-19T15:17:24.439Z,102444.69
2023-05-19T15:19:50.959Z,102449.47
2023-05-19T15:22:17.366Z,102435.25
2023-05-19T15:24:43.845Z,102442.06
2023-05-19T15:27:10.352Z,102453.19
2023-05-19T15:29:36.844Z,102443.25
2023-05-19T15:32:03.402Z,102439.13
2023-05-19T15:34:29.884Z,102449.19
2023-05-19T15:36:56.408Z,102446.28
2023-05-19T15:39:22.866Z,102440.28
2023-05-19T15:41:50.354Z,102439.56
2023-05-19T15:44:17.059Z,102434.53
2023-05-19T15:46:43.555Z,102431.13
2023-05-19T15:49:12.926Z,102435.75
2023-05-19T15:51:39.701Z,102433.31
2023-05-19T15:54:06.255Z,102430.59
2023-05-19T15:56:32.674Z,102429.88
2023-05-19T15:58:59.104Z,102423.72
2023-05-19T16:01:26.401Z,102415.53
2023-05-19T16:03:53.230Z,102416.88
2023-05-19T16:06:19.942Z,102425.06
2023-05-19T16:08:46.381Z,102425.25
2023-05-19T16:11:12.838Z,102413.59
2023-05-19T16:13:39.260Z,102416.31
2023-05-19T16:16:06.068Z,102407.09
2023-05-19T16:18:32.517Z,102406.97
2023-05-19T16:20:58.894Z,102399.44
2023-05-19T16:23:25.402Z,102410.53
2023-05-19T16:25:52.353Z,102404.38
2023-05-19T16:28:19.372Z,102396.16
2023-05-19T16:30:46.165Z,102395.47
2023-05-19T16:33:12.686Z,102403.31
2023-05-19T16:35:39.439Z,102404.16
2023-05-19T16:38:05.870Z,102411.81
2023-05-19T16:40:32.610Z,102401.06
2023-05-19T16:42:59.317Z,102412.13
2023-05-19T16:45:26.543Z,102411.28
2023-05-19T16:47:53.141Z,102405.13
2023-05-19T16:50:19.619Z,102395.53
2023-05-19T16:52:46.510Z,102406.63
2023-05-19T16:55:17.269Z,102404.06
2023-05-19T16:57:43.852Z,102399.59
2023-05-19T17:00:10.620Z,102404.19
2023-05-19T17:02:37.202Z,102403.34
2023-05-19T17:05:03.840Z,102403.50
2023-05-19T17:07:30.323Z,102397.31
2023-05-19T17:09:56.901Z,102398.53
2023-05-19T17:12:23.372Z,102403.13
2023-05-19T17:14:51.967Z,102404.00
2023-05-19T17:17:18.604Z,102411.47
2023-05-19T17:19:45.070Z,102409.75
2023-05-19T17:22:11.679Z,102403.63
2023-05-19T17:24:38.096Z,102409.22
2023-05-19T17:27:04.726Z,102402.75
2023-05-19T17:29:31.186Z,102400.34
2023-05-19T17:31:57.630Z,102405.94
2023-05-19T17:34:24.262Z,102408.16
2023-05-19T17:36:50.868Z,102409.47
2023-05-19T17:39:17.369Z,102412.69
2023-05-19T17:41:43.878Z,102413.84
2023-05-19T17:44:11.238Z,102406.50
2023-05-19T17:46:39.258Z,102420.00
2023-05-19T17:49:06.298Z,102412.81
2023-05-19T17:51:32.966Z,102418.47
2023-05-19T17:53:59.519Z,102420.16
2023-05-19T17:56:26.947Z,102427.34
2023-05-19T17:58:53.434Z,102430.31
2023-05-19T18:01:23.770Z,102420.91
2023-05-19T18:03:50.745Z,102418.91
2023-05-19T18:06:17.715Z,102424.19
2023-05-19T18:08:50.420Z,102419.47
2023-05-19T18:11:20.295Z,102423.03
2023-05-19T18:13:46.779Z,102418.25
2023-05-19T18:16:13.352Z,102424.63
2023-05-19T18:18:43.516Z,102422.72
2023-05-19T18:21:14.268Z,102424.44
2023-05-19T18:23:41.482Z,102418.97
2023-05-19T18:26:08.147Z,102422.41
2023-05-19T18:28:35.340Z,102434.22
2023-05-19T18:31:05.434Z,102430.59
2023-05-19T18:33:31.916Z,102433.19
2023-05-19T18:35:58.509Z,102443.25
2023-05-19T18:38:24.888Z,102448.84
2023-05-19T18:40:51.750Z,102449.03
2023-05-19T18:43:18.620Z,102443.72
2023-05-19T18:45:48.180Z,102446.59
2023-05-19T18:48:15.559Z,102450.19
2023-05-19T18:50:44.505Z,102459.56
2023-05-19T18:53:11.761Z,102465.03
2023-05-19T18:55:38.648Z,102465.03
2023-05-19T18:58:06.147Z,102473.06
2023-05-19T19:00:33.124Z,102467.44
2023-05-19T19:02:59.915Z,102469.16
2023-05-19T19:05:26.400Z,102467.28
2023-05-19T19:07:53.332Z,102472.59
2023-05-19T19:10:19.827Z,102468.84
2023-05-19T19:12:46.366Z,102460.63
2023-05-19T19:15:12.789Z,102462.38
2023-05-19T19:17:42.097Z,102468.69
2023-05-19T19:20:08.988Z,102466.81
2023-05-19T19:22:35.553Z,102464.09
2023-05-19T19:25:01.979Z,102481.16
2023-05-19T19:27:31.098Z,102476.72
2023-05-19T19:30:00.762Z,102478.44
2023-05-19T19:32:27.311Z,102483.91
2023-05-19T19:34:53.749Z,102481.16
2023-05-19T19:37:20.309Z,102479.28
2023-05-19T19:39:46.857Z,102482.03
2023-05-19T19:42:13.353Z,102482.03
2023-05-19T19:44:39.812Z,102473.81
2023-05-19T19:47:06.456Z,102465.63
2023-05-19T19:49:33.341Z,102465.78
2023-05-19T19:51:59.772Z,102458.31
2023-05-19T19:54:26.228Z,102465.50
2023-05-19T19:56:52.674Z,102467.19
2023-05-19T19:59:19.281Z,102465.50
2023-05-19T20:01:45.885Z,102464.63
2023-05-19T20:04:12.600Z,102469.06
2023-05-19T20:06:39.146Z,102474.53
2023-05-19T20:09:05.522Z,102474.53
2023-05-19T20:11:31.978Z,102472.84
2023-05-19T20:13:58.427Z,102479.16
2023-05-19T20:16:24.950Z,102483.59
2023-05-19T20:18:51.499Z,102482.75
2023-05-19T20:21:17.969Z,102480.84
2023-05-19T20:23:44.416Z,102491.78
2023-05-19T20:26:13.187Z,102490.94
2023-05-19T20:28:40.235Z,102490.94
2023-05-19T20:31:07.024Z,102484.63
2023-05-19T20:33:33.542Z,102483.59
2023-05-19T20:35:59.942Z,102489.06
2023-05-19T20:38:26.391Z,102489.91
2023-05-19T20:40:53.683Z,102493.66
2023-05-19T20:43:20.108Z,102494.53
2023-05-19T20:45:46.577Z,102497.25
2023-05-19T20:48:13.063Z,102492.81
2023-05-19T20:50:39.565Z,102493.66
2023-05-19T20:53:07.344Z,102496.41
2023-05-19T20:55:36.071Z,102500.00
2023-05-19T20:58:02.643Z,102496.41
2023-05-19T21:00:30.491Z,102490.94
2023-05-19T21:02:57.474Z,102494.69
2023-05-19T21:05:24.260Z,102489.22
2023-05-19T21:07:50.850Z,102492.81
2023-05-19T21:10:17.928Z,102499.13
2023-05-19T21:12:44.452Z,102495.53
2023-05-19T21:15:11.285Z,102502.88
2023-05-19T21:17:37.813Z,102511.09
2023-05-19T21:20:04.555Z,102511.22
2023-05-19T21:22:30.942Z,102517.53
2023-05-19T21:24:57.419Z,102523.00
2023-05-19T21:27:23.824Z,102527.63
2023-05-19T21:29:54.186Z,102520.28
2023-05-19T21:32:21.246Z,102522.16
2023-05-19T21:34:47.686Z,102522.16
2023-05-19T21:37:14.156Z,102523.00
2023-05-19T21:39:40.582Z,102522.00
2023-05-19T21:42:07.016Z,102523.88
2023-05-19T21:44:33.675Z,102524.75
2023-05-19T21:47:00.152Z,102533.94
2023-05-19T21:49:26.650Z,102530.22
2023-05-19T21:51:53.110Z,102526.47
2023-05-19T21:54:19.596Z,102530.22
2023-05-19T21:56:46.183Z,102531.19
2023-05-19T21:59:12.758Z,102536.66
2023-05-19T22:01:39.325Z,102539.41
2023-05-19T22:04:05.999Z,102533.41
2023-05-19T22:06:33.513Z,102539.72
2023-05-19T22:09:02.235Z,102533.41
2023-05-19T22:11:28.646Z,102536.28
2023-05-19T22:13:55.150Z,102538.03
2023-05-19T22:16:21.955Z,102535.28
2023-05-19T22:18:48.548Z,102539.00
2023-05-19T22:21:15.005Z,102549.94
2023-05-19T22:23:41.409Z,102537.31
2023-05-19T22:26:07.875Z,102537.31
2023-05-19T22:28:34.311Z,102547.38
2023-05-19T22:31:00.752Z,102555.56
2023-05-19T22:33:27.227Z,102547.38
2023-05-19T22:35:53.814Z,102545.66
2023-05-19T22:38:20.254Z,102548.53
2023-05-19T22:40:46.699Z,102546.81
2023-05-19T22:43:13.163Z,102548.53
2023-05-19T22:45:39.602Z,102543.78
2023-05-19T22:48:06.251Z,102551.69
2023-05-19T22:50:32.678Z,102550.31
2023-05-19T22:52:59.111Z,102544.44
2023-05-19T22:55:25.548Z,102556.91
2023-05-19T22:57:51.949Z,102551.13
2023-05-19T23:00:20.669Z,102550.09
2023-05-19T23:02:47.336Z,102551.81
2023-05-19T23:05:13.796Z,102542.75
2023-05-19T23:07:40.410Z,102546.22
2023-05-19T23:10:07.541Z,102551.69
2023-05-19T23:12:34.258Z,102538.69
2023-05-19T23:15:01.151Z,102539.72
2023-05-19T23:17:27.637Z,102538.69
2023-05-19T23:19:54.049Z,102539.56
2023-05-19T23:22:20.557Z,102533.22
2023-05-19T23:24:47.002Z,102526.91
2023-05-19T23:27:13.424Z,102529.66
2023-05-19T23:29:39.814Z,102536.13
2023-05-19T23:32:06.439Z,102544.34
2023-05-19T23:34:32.875Z,102540.75
2023-05-19T23:36:59.377Z,102529.66
2023-05-19T23:39:25.937Z,102533.22
2023-05-19T23:41:52.339Z,102536.13
2023-05-19T23:44:18.841Z,102540.56
2023-05-19T23:46:45.268Z,102543.31
2023-05-19T23:49:11.695Z,102532.25
2023-05-19T23:51:38.082Z,102533.09
2023-05-19T23:54:04.578Z,102532.94
2023-05-19T23:56:30.991Z,102534.81
2023-05-19T23:58:57.400Z,102532.94
